Time;durP1;ratioP1;P1;durP2;ratioP2;P2;SDS_P1;SDS_P2;PMS_P1;PMS_P2;Temp;Humidity;BMP_temperature;BMP_pressure;BME280_temperature;BME280_humidity;BME280_pressure;Samples;Min_cycle;Max_cycle;Signal;HPM_P1;HPM_P2
2022/11/13 00:01:51;;;;;;;15.98;14.30;;;6.30;99.90;;;;;;7374043;19;20096;-37
2022/11/13 00:04:35;;;;;;;15.07;12.85;;;6.30;99.90;;;;;;7370722;19;20041;-38
2022/11/13 00:07:20;;;;;;;18.38;13.82;;;6.20;99.90;;;;;;7368622;19;20414;-38
2022/11/13 00:10:06;;;;;;;14.77;13.25;;;6.30;99.90;;;;;;7363774;19;20033;-38
2022/11/13 00:12:50;;;;;;;16.98;13.07;;;6.30;99.90;;;;;;7371841;19;20015;-37
2022/11/13 00:15:35;;;;;;;13.85;12.35;;;6.30;99.90;;;;;;7369324;19;20018;-39
2022/11/13 00:18:20;;;;;;;14.20;11.98;;;6.30;99.90;;;;;;7367724;19;20465;-37
2022/11/13 00:21:17;;;;;;;15.88;12.27;;;6.30;99.90;;;;;;7366105;19;20015;-38
2022/11/13 00:24:02;;;;;;;14.23;12.73;;;6.30;99.90;;;;;;7369322;19;20023;-38
2022/11/13 00:26:47;;;;;;;14.23;12.43;;;6.30;99.90;;;;;;7371567;19;20086;-38
2022/11/13 00:29:33;;;;;;;15.23;12.35;;;6.30;99.90;;;;;;7368519;19;20050;-47
2022/11/13 00:32:19;;;;;;;14.45;12.23;;;6.30;99.90;;;;;;7368245;19;20464;-46
2022/11/13 00:35:04;;;;;;;17.92;12.68;;;6.40;99.90;;;;;;7368420;19;20015;-48
2022/11/13 00:37:49;;;;;;;14.63;12.70;;;6.40;99.90;;;;;;7371383;19;20054;-47
2022/11/13 00:40:34;;;;;;;17.20;12.70;;;6.40;99.90;;;;;;7365602;19;20015;-48
2022/11/13 00:43:18;;;;;;;15.50;12.68;;;6.30;99.90;;;;;;7370425;19;20094;-48
2022/11/13 00:46:05;;;;;;;15.68;12.90;;;6.30;99.90;;;;;;7368988;19;20030;-48
2022/11/13 00:48:50;;;;;;;14.80;12.60;;;6.30;99.90;;;;;;7370809;19;20074;-49
2022/11/13 00:51:34;;;;;;;14.38;12.18;;;6.40;99.90;;;;;;7366570;19;20470;-50
2022/11/13 00:54:19;;;;;;;15.45;12.65;;;6.30;99.90;;;;;;7368558;19;20019;-48
2022/11/13 00:57:04;;;;;;;15.77;14.00;;;6.40;99.90;;;;;;7370037;19;20079;-50
2022/11/13 00:59:49;;;;;;;15.60;13.50;;;6.40;99.90;;;;;;7369428;19;20019;-49
2022/11/13 01:02:34;;;;;;;18.15;13.80;;;6.40;99.90;;;;;;7368623;19;20055;-50
2022/11/13 01:05:19;;;;;;;19.33;12.68;;;6.40;99.90;;;;;;7366920;19;20046;-51
2022/11/13 01:08:04;;;;;;;14.35;12.85;;;6.40;99.90;;;;;;7367130;19;20588;-38
2022/11/13 01:10:49;;;;;;;18.58;13.82;;;6.40;99.90;;;;;;7378308;19;20021;-39
2022/11/13 01:13:34;;;;;;;16.02;12.77;;;6.40;99.90;;;;;;7375726;19;20360;-38
2022/11/13 01:16:21;;;;;;;16.23;13.80;;;6.40;99.90;;;;;;7376993;19;20091;-49
2022/11/13 01:19:06;;;;;;;16.80;13.90;;;6.40;99.90;;;;;;7378185;19;20504;-51
2022/11/13 01:21:51;;;;;;;17.25;13.07;;;6.40;99.90;;;;;;7374819;19;20041;-51
2022/11/13 01:24:35;;;;;;;16.27;13.25;;;6.40;99.90;;;;;;7377142;19;20019;-47
2022/11/13 01:27:20;;;;;;;16.95;13.65;;;6.40;99.90;;;;;;7374792;19;21065;-38
2022/11/13 01:30:05;;;;;;;14.60;12.93;;;6.50;99.90;;;;;;7372739;19;20107;-49
2022/11/13 01:32:50;;;;;;;15.77;13.57;;;6.50;99.90;;;;;;7372330;19;20069;-50
2022/11/13 01:35:35;;;;;;;17.02;13.85;;;6.50;99.90;;;;;;7376674;19;20015;-38
2022/11/13 01:38:20;;;;;;;16.42;12.82;;;6.40;99.90;;;;;;7374360;19;20015;-38
2022/11/13 01:41:06;;;;;;;16.88;14.07;;;6.50;99.90;;;;;;7376656;19;20345;-38
2022/11/13 01:43:52;;;;;;;16.10;14.25;;;6.50;99.90;;;;;;7370128;19;20453;-38
2022/11/13 01:46:41;;;;;;;17.58;13.60;;;6.40;99.90;;;;;;7376353;19;20015;-39
2022/11/13 01:49:39;;;;;;;14.75;13.07;;;6.40;99.90;;;;;;7376670;19;20477;-38
2022/11/13 01:52:28;;;;;;;17.52;13.70;;;6.40;99.90;;;;;;7376470;19;20583;-38
2022/11/13 01:55:16;;;;;;;17.63;12.85;;;6.30;99.90;;;;;;7371635;19;20022;-38
2022/11/13 01:58:04;;;;;;;19.38;14.98;;;6.30;99.90;;;;;;7374122;19;20022;-38
2022/11/13 02:00:50;;;;;;;15.75;13.90;;;6.30;99.90;;;;;;7373870;19;20052;-38
2022/11/13 02:03:35;;;;;;;16.17;14.13;;;6.30;99.90;;;;;;7374540;19;20103;-38
2022/11/13 02:06:20;;;;;;;18.38;14.48;;;6.30;99.90;;;;;;7372481;19;20544;-38
2022/11/13 02:09:06;;;;;;;19.00;14.23;;;6.30;99.90;;;;;;7374954;19;20717;-38
2022/11/13 02:11:52;;;;;;;16.20;13.63;;;6.20;99.90;;;;;;7376149;19;20026;-38
2022/11/13 02:14:44;;;;;;;17.30;15.43;;;6.20;99.90;;;;;;7371696;19;21265;-37
2022/11/13 02:17:49;;;;;;;20.00;15.18;;;6.20;99.90;;;;;;7372591;19;20014;-38
2022/11/13 02:21:02;;;;;;;19.15;15.32;;;6.20;99.90;;;;;;7373989;19;20129;-38
2022/11/13 02:24:13;;;;;;;18.67;15.90;;;6.20;99.90;;;;;;7375588;19;20010;-47
2022/11/13 02:27:04;;;;;;;18.95;14.52;;;6.20;99.90;;;;;;7374654;19;20022;-52
2022/11/13 02:29:49;;;;;;;17.00;15.20;;;6.10;99.90;;;;;;7374137;19;20389;-51
2022/11/13 02:32:34;;;;;;;19.38;14.70;;;6.20;99.90;;;;;;7370981;19;20023;-39
2022/11/13 02:35:26;;;;;;;17.40;14.77;;;6.10;99.90;;;;;;7373884;19;20182;-38
2022/11/13 02:38:11;;;;;;;19.20;15.93;;;6.20;99.90;;;;;;7369140;19;20473;-51
2022/11/13 02:40:55;;;;;;;21.13;15.63;;;6.20;99.90;;;;;;7375567;19;20451;-48
2022/11/13 02:43:40;;;;;;;21.05;17.17;;;6.20;99.90;;;;;;7366725;19;20057;-50
2022/11/13 02:46:25;;;;;;;18.40;14.65;;;6.20;99.90;;;;;;7374443;19;20018;-38
2022/11/13 02:49:09;;;;;;;19.17;16.20;;;6.30;99.90;;;;;;7376934;19;20018;-38
2022/11/13 02:51:54;;;;;;;20.58;17.30;;;6.40;99.90;;;;;;7375119;19;20078;-38
2022/11/13 02:54:38;;;;;;;21.40;17.85;;;6.40;99.90;;;;;;7370443;19;20098;-38
2022/11/13 02:57:23;;;;;;;19.48;16.17;;;6.40;99.90;;;;;;7370832;19;20022;-49
2022/11/13 03:00:09;;;;;;;22.00;16.60;;;6.40;99.90;;;;;;7369329;19;20023;-52
2022/11/13 03:02:54;;;;;;;20.10;17.20;;;6.40;99.90;;;;;;7375662;19;20015;-47
2022/11/13 03:05:39;;;;;;;23.75;16.88;;;6.30;99.90;;;;;;7375921;19;20023;-50
2022/11/13 03:08:25;;;;;;;22.42;17.58;;;6.40;99.90;;;;;;7370431;19;20506;-49
2022/11/13 03:11:10;;;;;;;22.20;16.83;;;6.30;99.90;;;;;;7371067;19;20023;-49
2022/11/13 03:13:55;;;;;;;18.52;16.52;;;6.30;99.90;;;;;;7374570;19;20577;-48
2022/11/13 03:16:40;;;;;;;20.08;16.45;;;6.30;99.90;;;;;;7371715;19;20018;-48
2022/11/13 03:19:25;;;;;;;18.02;16.02;;;6.30;99.90;;;;;;7373699;19;20018;-50
2022/11/13 03:22:10;;;;;;;20.45;17.77;;;6.30;99.90;;;;;;7368990;19;20039;-49
2022/11/13 03:24:55;;;;;;;21.30;16.95;;;6.30;99.90;;;;;;7372958;19;20007;-50
2022/11/13 03:27:39;;;;;;;19.27;17.25;;;6.30;99.90;;;;;;7373311;19;20017;-52
2022/11/13 03:30:25;;;;;;;21.42;17.52;;;6.20;99.90;;;;;;7371105;19;20380;-51
2022/11/13 03:33:10;;;;;;;21.50;17.10;;;6.20;99.90;;;;;;7366350;19;20022;-49
2022/11/13 03:35:54;;;;;;;18.92;16.75;;;6.10;99.90;;;;;;7370713;19;20046;-48
2022/11/13 03:38:39;;;;;;;19.90;17.10;;;6.10;99.90;;;;;;7370447;19;20045;-58
2022/11/13 03:41:24;;;;;;;20.90;17.08;;;6.00;99.90;;;;;;7364827;19;20427;-49
2022/11/13 03:44:08;;;;;;;19.52;16.35;;;6.00;99.90;;;;;;7371495;19;20258;-48
2022/11/13 03:46:53;;;;;;;22.98;17.52;;;5.90;99.90;;;;;;7369171;19;20031;-51
2022/11/13 03:49:38;;;;;;;22.63;17.73;;;5.90;99.90;;;;;;7370690;19;20418;-51
2022/11/13 03:52:23;;;;;;;21.67;17.17;;;5.90;99.90;;;;;;7372491;19;20042;-52
2022/11/13 03:55:08;;;;;;;19.10;17.02;;;5.90;99.90;;;;;;7370669;19;20025;-48
2022/11/13 03:57:53;;;;;;;19.60;17.52;;;5.90;99.90;;;;;;7367537;19;20022;-49
2022/11/13 04:00:40;;;;;;;20.38;17.08;;;5.90;99.90;;;;;;7370086;19;20062;-51
2022/11/13 04:03:25;;;;;;;19.92;17.42;;;5.90;99.90;;;;;;7373495;19;20011;-52
2022/11/13 04:06:10;;;;;;;22.50;17.85;;;5.90;99.90;;;;;;7367051;19;20061;-50
2022/11/13 04:08:56;;;;;;;22.70;18.05;;;5.90;99.90;;;;;;7370940;19;20391;-53
2022/11/13 04:11:41;;;;;;;19.77;16.98;;;5.90;99.90;;;;;;7374450;19;20022;-52
2022/11/13 04:14:25;;;;;;;18.88;16.38;;;5.80;99.90;;;;;;7368827;19;20015;-52
2022/11/13 04:17:10;;;;;;;18.52;16.55;;;5.80;99.90;;;;;;7371769;19;20086;-39
2022/11/13 04:19:55;;;;;;;20.60;17.17;;;5.80;99.90;;;;;;7368690;19;20102;-39
2022/11/13 04:22:40;;;;;;;19.75;17.05;;;5.70;99.90;;;;;;7370830;19;20015;-37
2022/11/13 04:25:25;;;;;;;20.52;17.83;;;5.70;99.90;;;;;;7367490;19;20010;-37
2022/11/13 04:28:10;;;;;;;17.95;15.07;;;5.70;99.90;;;;;;7370663;19;20573;-40
2022/11/13 04:30:55;;;;;;;23.15;18.33;;;5.70;99.90;;;;;;7369506;19;20023;-49
2022/11/13 04:33:40;;;;;;;19.88;16.90;;;5.70;99.90;;;;;;7370518;19;20023;-38
2022/11/13 04:36:25;;;;;;;18.67;16.58;;;5.60;99.90;;;;;;7367267;19;20026;-37
2022/11/13 04:39:10;;;;;;;18.52;16.30;;;5.60;99.90;;;;;;7364226;19;20769;-37
2022/11/13 04:44:58;;;;;;;22.15;18.13;;;5.50;99.90;;;;;;7374392;19;20046;-46
2022/11/13 04:47:44;;;;;;;19.83;16.70;;;5.50;99.90;;;;;;7373648;19;20047;-48
2022/11/13 04:50:29;;;;;;;18.77;16.10;;;5.50;99.90;;;;;;7379257;19;20889;-52
2022/11/13 04:53:14;;;;;;;19.75;16.70;;;5.40;99.90;;;;;;7379516;19;20021;-52
2022/11/13 04:55:59;;;;;;;21.52;17.83;;;5.40;99.90;;;;;;7376459;19;20014;-52
2022/11/13 04:58:44;;;;;;;19.35;16.73;;;5.30;99.90;;;;;;7376187;19;20050;-53
2022/11/13 05:01:29;;;;;;;22.20;18.00;;;5.30;99.90;;;;;;7374647;19;20026;-52
2022/11/13 05:04:15;;;;;;;21.17;17.52;;;5.30;99.90;;;;;;7374897;19;20042;-52
2022/11/13 05:07:00;;;;;;;18.35;16.45;;;5.20;99.90;;;;;;7377123;19;20057;-52
2022/11/13 05:09:44;;;;;;;20.42;17.67;;;5.30;99.90;;;;;;7376340;19;20373;-48
2022/11/13 05:12:29;;;;;;;21.25;18.92;;;5.30;99.90;;;;;;7371393;19;20397;-40
2022/11/13 05:15:14;;;;;;;24.50;18.40;;;5.20;99.90;;;;;;7381376;19;20513;-38
2022/11/13 05:17:59;;;;;;;23.50;19.42;;;5.30;99.90;;;;;;7377447;19;20074;-39
2022/11/13 05:20:43;;;;;;;23.73;19.10;;;5.30;99.90;;;;;;7376146;19;20019;-38
2022/11/13 05:23:29;;;;;;;26.60;20.52;;;5.30;99.90;;;;;;7378537;19;20378;-39
2022/11/13 05:26:14;;;;;;;27.52;19.95;;;5.40;99.90;;;;;;7377490;19;20030;-40
2022/11/13 05:28:59;;;;;;;26.58;21.27;;;5.40;99.90;;;;;;7376059;19;20632;-51
2022/11/13 05:31:45;;;;;;;23.38;19.55;;;5.40;99.90;;;;;;7375613;19;20468;-38
2022/11/13 05:34:30;;;;;;;23.35;20.25;;;5.50;99.90;;;;;;7374772;19;20025;-38
2022/11/13 05:37:15;;;;;;;26.17;19.90;;;5.50;99.90;;;;;;7375045;19;20054;-38
2022/11/13 05:39:59;;;;;;;23.13;19.15;;;5.40;99.90;;;;;;7373448;19;20051;-38
2022/11/13 05:42:47;;;;;;;23.42;20.10;;;5.50;99.90;;;;;;7374395;19;20022;-39
2022/11/13 05:45:32;;;;;;;22.88;18.50;;;5.40;99.90;;;;;;7372911;19;20505;-39
2022/11/13 05:48:16;;;;;;;22.98;19.98;;;5.40;99.90;;;;;;7375396;19;20111;-39
2022/11/13 05:51:10;;;;;;;21.60;17.80;;;5.40;99.90;;;;;;7374882;19;20064;-40
2022/11/13 05:53:55;;;;;;;23.08;20.08;;;5.40;99.90;;;;;;7374050;19;20010;-41
2022/11/13 05:56:40;;;;;;;24.52;19.30;;;5.40;99.90;;;;;;7373588;19;20033;-39
2022/11/13 05:59:25;;;;;;;23.38;18.08;;;5.40;99.90;;;;;;7377034;19;20038;-39
2022/11/13 06:02:10;;;;;;;24.58;19.33;;;5.40;99.90;;;;;;7371235;19;20030;-39
2022/11/13 06:04:56;;;;;;;31.75;20.08;;;5.40;99.90;;;;;;7367727;19;20018;-39
2022/11/13 06:07:41;;;;;;;25.23;19.77;;;5.40;99.90;;;;;;7374550;19;20023;-39
2022/11/13 06:10:25;;;;;;;19.42;17.33;;;5.40;99.90;;;;;;7376117;19;20051;-37
2022/11/13 06:13:10;;;;;;;22.10;18.70;;;5.50;99.90;;;;;;7375246;19;20403;-38
2022/11/13 06:16:00;;;;;;;23.15;17.85;;;5.40;99.90;;;;;;7376345;19;20468;-37
2022/11/13 06:18:47;;;;;;;23.00;17.63;;;5.40;99.90;;;;;;7376818;19;20031;-38
2022/11/13 06:21:33;;;;;;;20.17;16.48;;;5.40;99.90;;;;;;7374416;19;20037;-38
2022/11/13 06:24:18;;;;;;;20.00;16.77;;;5.40;99.90;;;;;;7370394;19;20041;-40
2022/11/13 06:27:04;;;;;;;21.65;18.27;;;5.40;99.90;;;;;;7374308;19;20049;-40
2022/11/13 06:29:49;;;;;;;22.30;17.92;;;5.30;99.90;;;;;;7377117;19;20380;-39
2022/11/13 06:32:34;;;;;;;21.65;18.25;;;5.30;99.90;;;;;;7374079;19;20790;-38
2022/11/13 06:35:19;;;;;;;20.92;16.63;;;5.20;99.90;;;;;;7375326;19;20589;-39
2022/11/13 06:38:03;;;;;;;19.05;17.02;;;5.30;99.90;;;;;;7376051;19;20015;-40
2022/11/13 06:40:48;;;;;;;18.83;16.73;;;5.20;99.90;;;;;;7375535;19;20573;-39
2022/11/13 06:43:33;;;;;;;18.13;16.15;;;5.20;99.90;;;;;;7372420;19;20637;-39
2022/11/13 06:46:20;;;;;;;21.65;18.17;;;5.20;99.90;;;;;;7370252;19;20051;-39
2022/11/13 06:49:05;;;;;;;21.02;17.38;;;5.20;99.90;;;;;;7374147;19;20368;-39
2022/11/13 06:51:50;;;;;;;19.65;16.63;;;5.10;99.90;;;;;;7377431;19;20024;-39
2022/11/13 06:54:35;;;;;;;19.63;16.67;;;5.20;99.90;;;;;;7373323;19;20090;-38
2022/11/13 06:57:22;;;;;;;23.00;17.52;;;5.10;99.90;;;;;;7370273;19;20355;-39
2022/11/13 07:00:08;;;;;;;20.90;17.70;;;5.10;99.90;;;;;;7374628;19;20014;-39
2022/11/13 07:02:53;;;;;;;22.73;16.63;;;5.00;99.90;;;;;;7373444;19;20034;-51
2022/11/13 07:05:38;;;;;;;22.42;17.38;;;5.00;99.90;;;;;;7370965;19;20025;-51
2022/11/13 07:08:23;;;;;;;21.02;17.38;;;5.00;99.90;;;;;;7370955;19;20015;-52
2022/11/13 07:11:21;;;;;;;21.50;17.85;;;5.00;99.90;;;;;;7370910;19;20025;-51
2022/11/13 07:14:11;;;;;;;19.27;16.75;;;5.00;99.90;;;;;;7369435;19;20457;-40
2022/11/13 07:16:56;;;;;;;21.80;16.75;;;5.00;99.90;;;;;;7372987;19;20065;-40
2022/11/13 07:19:40;;;;;;;21.67;16.73;;;5.00;99.90;;;;;;7375012;19;20104;-41
2022/11/13 07:22:28;;;;;;;19.40;17.05;;;5.00;99.90;;;;;;7373343;19;20026;-39
2022/11/13 07:25:13;;;;;;;23.23;17.30;;;5.10;99.90;;;;;;7365771;19;20105;-52
2022/11/13 07:27:58;;;;;;;22.73;18.15;;;5.00;99.90;;;;;;7363702;19;20070;-52
2022/11/13 07:30:43;;;;;;;20.92;16.67;;;5.00;99.90;;;;;;7363024;19;20021;-52
2022/11/13 07:33:28;;;;;;;20.60;18.40;;;5.00;99.90;;;;;;7362400;19;20034;-50
2022/11/13 07:36:13;;;;;;;20.83;16.27;;;5.10;99.90;;;;;;7363845;19;20386;-48
2022/11/13 07:38:58;;;;;;;20.67;17.63;;;5.10;99.90;;;;;;7366942;19;20015;-51
2022/11/13 07:41:43;;;;;;;22.73;17.15;;;5.20;99.90;;;;;;7369451;19;20019;-47
2022/11/13 07:44:28;;;;;;;23.60;17.77;;;5.20;99.90;;;;;;7370554;19;20029;-52
2022/11/13 07:47:13;;;;;;;20.23;16.88;;;5.30;99.90;;;;;;7372992;19;20042;-52
2022/11/13 07:49:57;;;;;;;20.13;17.20;;;5.30;99.90;;;;;;7374375;19;20015;-52
2022/11/13 07:52:42;;;;;;;25.55;17.75;;;5.30;99.90;;;;;;7366327;19;20127;-52
2022/11/13 07:55:27;;;;;;;20.10;17.67;;;5.40;99.90;;;;;;7369393;19;20018;-51
2022/11/13 07:58:12;;;;;;;20.95;18.20;;;5.40;99.90;;;;;;7370643;19;20022;-50
2022/11/13 08:01:05;;;;;;;20.80;17.95;;;5.40;99.90;;;;;;7369065;19;20046;-39
2022/11/13 08:03:49;;;;;;;27.23;19.23;;;5.40;99.90;;;;;;7367905;19;20394;-52
2022/11/13 08:06:38;;;;;;;20.30;17.42;;;5.50;99.90;;;;;;7367780;19;20014;-51
2022/11/13 08:09:23;;;;;;;21.45;18.25;;;5.50;99.90;;;;;;7367081;19;20530;-52
2022/11/13 08:12:08;;;;;;;20.60;18.10;;;5.60;99.90;;;;;;7369678;19;20637;-39
2022/11/13 08:14:53;;;;;;;19.27;17.30;;;5.60;99.90;;;;;;7373163;19;20573;-39
2022/11/13 08:17:38;;;;;;;19.77;16.98;;;5.70;99.90;;;;;;7375199;19;20026;-39
2022/11/13 08:20:24;;;;;;;25.20;18.00;;;5.80;99.90;;;;;;7373206;19;20098;-39
2022/11/13 08:23:09;;;;;;;21.35;17.48;;;6.00;99.90;;;;;;7374070;19;20718;-39
2022/11/13 08:25:54;;;;;;;18.13;14.68;;;7.00;99.90;;;;;;7376229;19;20022;-39
2022/11/13 08:28:39;;;;;;;15.30;13.00;;;8.30;99.90;;;;;;7372410;19;20029;-40
2022/11/13 08:31:24;;;;;;;15.10;12.68;;;9.50;99.90;;;;;;7374674;19;20042;-40
2022/11/13 08:34:09;;;;;;;16.63;12.80;;;10.10;99.90;;;;;;7368576;19;20025;-40
2022/11/13 08:36:54;;;;;;;12.18;10.57;;;10.40;99.90;;;;;;7375248;19;20030;-39
2022/11/13 08:39:39;;;;;;;14.48;10.75;;;10.40;99.90;;;;;;7370237;19;20018;-40
2022/11/13 08:42:24;;;;;;;11.60;10.40;;;10.40;99.90;;;;;;7370124;19;20018;-51
2022/11/13 08:45:09;;;;;;;11.77;10.50;;;10.40;99.90;;;;;;7370097;19;20026;-51
2022/11/13 08:47:58;;;;;;;12.38;10.45;;;10.90;99.90;;;;;;7374474;19;20387;-41
2022/11/13 08:50:43;;;;;;;10.73;9.27;;;11.60;99.90;;;;;;7375128;19;20014;-39
2022/11/13 08:53:28;;;;;;;10.57;9.18;;;12.30;99.90;;;;;;7372322;19;20018;-49
2022/11/13 08:56:12;;;;;;;11.23;10.05;;;12.70;99.90;;;;;;7376216;19;20022;-48
2022/11/13 08:58:57;;;;;;;10.45;9.35;;;12.90;99.90;;;;;;7373685;19;20505;-39
2022/11/13 09:01:41;;;;;;;10.85;9.77;;;13.40;99.90;;;;;;7374400;19;20030;-39
2022/11/13 09:04:26;;;;;;;10.15;8.95;;;13.20;99.90;;;;;;7374674;19;20050;-52
2022/11/13 09:07:12;;;;;;;10.48;9.48;;;12.70;99.90;;;;;;7371278;19;20025;-37
2022/11/13 09:09:57;;;;;;;10.30;9.20;;;12.70;99.90;;;;;;7376700;19;20444;-38
2022/11/13 09:12:42;;;;;;;9.80;8.85;;;12.70;99.90;;;;;;7379784;19;20366;-39
2022/11/13 09:15:29;;;;;;;10.15;8.32;;;13.70;99.90;;;;;;7374348;19;20056;-39
2022/11/13 09:18:14;;;;;;;10.65;8.65;;;14.40;99.90;;;;;;7371139;19;20137;-51
2022/11/13 09:21:01;;;;;;;10.35;8.93;;;14.40;99.90;;;;;;7372894;19;20383;-51
2022/11/13 09:23:46;;;;;;;10.18;8.18;;;15.00;99.90;;;;;;7374308;19;20018;-52
2022/11/13 09:26:31;;;;;;;9.93;7.57;;;15.20;99.90;;;;;;7372462;19;20081;-39
2022/11/13 09:29:17;;;;;;;13.48;12.10;;;15.70;99.90;;;;;;7371451;19;20018;-39
2022/11/13 09:32:02;;;;;;;13.63;12.20;;;15.50;99.90;;;;;;7371528;19;20019;-50
2022/11/13 09:34:46;;;;;;;9.02;7.95;;;15.10;99.90;;;;;;7369688;19;20597;-52
2022/11/13 09:37:31;;;;;;;9.43;8.52;;;15.10;99.90;;;;;;7373689;19;20022;-51
2022/11/13 09:40:24;;;;;;;9.32;8.02;;;15.30;99.90;;;;;;7363788;19;20050;-51
2022/11/13 09:43:26;;;;;;;9.10;7.88;;;15.50;99.90;;;;;;7365765;19;20014;-39
2022/11/13 09:46:17;;;;;;;8.25;7.45;;;15.30;99.90;;;;;;7368045;19;20030;-50
2022/11/13 09:49:15;;;;;;;8.90;7.63;;;15.20;99.90;;;;;;7369632;19;20497;-38
2022/11/13 09:52:14;;;;;;;16.63;13.68;;;15.20;99.90;;;;;;7371632;19;20550;-38
2022/11/13 09:54:59;;;;;;;9.23;8.32;;;15.20;99.90;;;;;;7371979;19;20018;-39
2022/11/13 09:58:14;;;;;;;9.02;8.15;;;15.20;99.90;;;;;;7373111;19;20587;-38
2022/11/13 10:00:59;;;;;;;9.43;8.50;;;15.40;99.90;;;;;;7371766;19;20066;-38
2022/11/13 10:03:49;;;;;;;10.30;7.85;;;15.80;99.90;;;;;;7371735;19;20125;-50
2022/11/13 10:06:48;;;;;;;9.60;7.53;;;15.80;99.90;;;;;;7371756;19;20058;-49
2022/11/13 10:10:05;;;;;;;8.60;7.70;;;15.60;99.90;;;;;;7370113;19;20018;-39
2022/11/13 10:12:54;;;;;;;8.95;8.00;;;15.00;99.90;;;;;;7375753;19;20040;-39
2022/11/13 10:15:43;;;;;;;10.60;8.27;;;14.60;99.90;;;;;;7369592;19;20014;-39
2022/11/13 10:18:32;;;;;;;8.80;7.88;;;14.70;99.90;;;;;;7371116;19;20018;-39
2022/11/13 10:21:44;;;;;;;9.77;8.38;;;15.10;99.90;;;;;;7368626;19;20010;-39
2022/11/13 10:24:40;;;;;;;8.77;7.88;;;16.10;99.90;;;;;;7368482;19;20094;-39
2022/11/13 10:27:26;;;;;;;9.30;7.40;;;16.90;99.90;;;;;;7373386;19;20487;-39
2022/11/13 10:30:16;;;;;;;8.20;7.38;;;17.40;99.90;;;;;;7375957;19;20462;-39
2022/11/13 10:33:05;;;;;;;9.65;7.35;;;18.50;99.90;;;;;;7372700;19;20523;-39
2022/11/13 10:36:27;;;;;;;8.85;6.85;;;19.20;99.90;;;;;;7373303;19;20019;-39
2022/11/13 10:39:12;;;;;;;8.35;6.57;;;19.90;99.80;;;;;;7344227;19;20624;-41
2022/11/13 10:41:57;;;;;;;7.82;5.88;;;20.40;99.90;;;;;;7361893;19;20014;-41
2022/11/13 10:44:58;;;;;;;6.93;6.25;;;20.70;97.80;;;;;;7369960;19;20412;-39
2022/11/13 10:47:48;;;;;;;7.30;5.97;;;20.90;92.90;;;;;;7371434;19;20019;-40
2022/11/13 10:50:34;;;;;;;7.07;5.95;;;21.20;92.60;;;;;;7366672;19;20025;-39
2022/11/13 10:53:20;;;;;;;6.80;5.50;;;21.90;88.00;;;;;;7369998;19;20029;-40
2022/11/13 10:56:29;;;;;;;5.80;5.20;;;20.70;82.00;;;;;;7370312;19;20022;-41
2022/11/13 10:59:17;;;;;;;6.00;5.32;;;21.20;78.90;;;;;;7367834;19;20019;-41
2022/11/13 11:02:21;;;;;;;6.10;5.50;;;21.30;86.20;;;;;;7370255;19;20482;-41
2022/11/13 11:05:17;;;;;;;5.88;4.85;;;22.00;77.30;;;;;;7372548;19;20026;-40
2022/11/13 11:08:08;;;;;;;11.07;9.90;;;22.40;74.60;;;;;;7367761;19;20425;-40
2022/11/13 11:14:39;;;;;;;6.28;5.00;;;21.80;76.90;;;;;;7369242;19;20441;-41
2022/11/13 11:17:37;;;;;;;7.50;5.55;;;22.30;71.00;;;;;;7368933;19;20033;-41
2022/11/13 11:20:38;;;;;;;5.78;5.13;;;22.40;69.30;;;;;;7361481;19;20020;-41
2022/11/13 11:23:46;;;;;;;7.78;4.97;;;22.90;70.40;;;;;;7364710;19;20046;-43
2022/11/13 11:26:37;;;;;;;6.55;5.40;;;22.90;67.50;;;;;;7364982;19;20527;-41
2022/11/13 11:29:27;;;;;;;6.13;4.88;;;23.30;67.10;;;;;;7365758;19;20035;-42
2022/11/13 11:32:26;;;;;;;6.00;5.40;;;23.50;65.90;;;;;;7368115;19;20458;-41
2022/11/13 11:35:17;;;;;;;5.88;5.28;;;24.20;60.40;;;;;;7368504;19;20027;-40
2022/11/13 11:38:19;;;;;;;5.05;4.18;;;24.30;59.10;;;;;;7370095;19;20021;-42
2022/11/13 11:41:16;;;;;;;6.25;4.50;;;24.10;59.00;;;;;;7370944;19;20022;-43
2022/11/13 11:44:21;;;;;;;4.93;4.00;;;24.30;58.40;;;;;;7368756;19;20583;-44
2022/11/13 11:47:15;;;;;;;7.38;6.43;;;24.60;56.50;;;;;;7366150;19;20026;-41
2022/11/13 11:50:00;;;;;;;5.63;4.85;;;24.20;57.00;;;;;;7367963;19;20473;-42
2022/11/13 11:53:12;;;;;;;5.95;4.45;;;24.30;57.60;;;;;;7366749;19;20817;-41
2022/11/13 11:56:16;;;;;;;5.05;4.20;;;24.40;52.60;;;;;;7363423;19;20015;-41
2022/11/13 11:59:25;;;;;;;7.28;4.03;;;24.30;53.20;;;;;;7363524;19;20502;-40
2022/11/13 12:02:41;;;;;;;5.40;3.97;;;24.20;54.90;;;;;;7364301;19;20018;-41
2022/11/13 12:05:43;;;;;;;5.68;3.70;;;24.00;54.00;;;;;;7357940;19;20467;-43
2022/11/13 12:08:41;;;;;;;8.30;6.82;;;23.60;54.80;;;;;;7360951;19;20026;-40
2022/11/13 12:11:34;;;;;;;6.13;4.80;;;23.60;56.70;;;;;;7362049;19;20046;-42
2022/11/13 12:14:25;;;;;;;;;;;23.80;58.80;;;;;;7364404;19;20041;-40
2022/11/13 12:17:10;;;;;;;11.43;9.15;;;23.80;57.80;;;;;;7366925;19;20347;-41
2022/11/13 12:20:13;;;;;;;7.35;5.95;;;23.80;60.00;;;;;;7366706;19;20030;-42
2022/11/13 12:23:26;;;;;;;5.57;4.65;;;23.70;59.50;;;;;;7367683;19;20434;-41
2022/11/13 12:26:27;;;;;;;5.93;5.22;;;23.60;59.10;;;;;;7362473;19;20006;-40
2022/11/13 12:29:44;;;;;;;5.72;4.93;;;23.80;59.70;;;;;;7364630;19;20105;-40
2022/11/13 12:32:56;;;;;;;5.18;4.18;;;23.70;58.60;;;;;;7359199;19;20018;-43
2022/11/13 12:35:46;;;;;;;7.47;6.40;;;24.00;59.00;;;;;;7364295;19;20447;-43
2022/11/13 12:38:45;;;;;;;7.13;5.00;;;23.90;59.80;;;;;;7364385;19;20026;-42
2022/11/13 12:41:53;;;;;;;5.20;4.70;;;24.00;58.00;;;;;;7361192;19;20329;-41
2022/11/13 12:45:18;;;;;;;6.53;5.32;;;23.60;59.10;;;;;;7361821;19;20019;-41
2022/11/13 12:48:13;;;;;;;5.90;5.28;;;22.30;59.90;;;;;;7362680;19;20034;-40
2022/11/13 12:51:07;;;;;;;7.97;6.55;;;21.30;64.00;;;;;;7362643;19;20018;-41
2022/11/13 12:53:54;;;;;;;5.60;4.57;;;20.70;67.00;;;;;;7366548;19;20018;-42
2022/11/13 12:56:39;;;;;;;6.00;5.13;;;20.50;70.20;;;;;;7361792;19;20844;-52
2022/11/13 12:59:30;;;;;;;7.40;6.10;;;20.30;72.00;;;;;;7364074;19;20039;-46
2022/11/13 13:02:27;;;;;;;5.85;5.25;;;20.30;74.40;;;;;;7367151;19;20478;-52
2022/11/13 13:05:33;;;;;;;7.88;5.30;;;21.00;74.00;;;;;;7375449;19;20018;-43
2022/11/13 13:08:28;;;;;;;12.55;11.25;;;22.30;69.10;;;;;;7375568;19;20370;-50
2022/11/13 13:11:34;;;;;;;8.40;6.97;;;22.40;67.60;;;;;;7376231;19;20022;-47
2022/11/13 13:14:23;;;;;;;5.15;4.35;;;22.70;65.50;;;;;;7374938;19;20456;-51
2022/11/13 13:17:13;;;;;;;6.53;4.93;;;23.30;62.90;;;;;;7371475;19;20675;-51
2022/11/13 13:20:05;;;;;;;5.57;4.28;;;23.90;61.20;;;;;;7372898;19;20042;-51
2022/11/13 13:22:58;;;;;;;6.30;4.22;;;23.60;60.40;;;;;;7374422;19;20042;-50
2022/11/13 13:25:43;;;;;;;5.03;4.25;;;24.10;58.00;;;;;;7371228;19;20026;-51
2022/11/13 13:28:30;;;;;;;5.25;4.68;;;24.00;59.20;;;;;;7370835;19;20022;-48
2022/11/13 13:31:50;;;;;;;5.93;4.30;;;23.10;58.50;;;;;;7371979;19;20064;-52
2022/11/13 13:35:03;;;;;;;5.50;4.25;;;23.10;56.70;;;;;;7372496;19;20026;-48
2022/11/13 13:38:13;;;;;;;4.18;3.60;;;23.20;58.50;;;;;;7372195;19;20470;-51
2022/11/13 13:41:05;;;;;;;6.32;4.18;;;23.80;57.30;;;;;;7370540;19;20482;-51
2022/11/13 13:44:11;;;;;;;4.75;3.63;;;23.80;57.50;;;;;;7374519;19;20375;-52
2022/11/13 13:46:57;;;;;;;4.90;3.75;;;23.90;56.90;;;;;;7371110;19;20022;-53
2022/11/13 13:49:42;;;;;;;5.97;4.75;;;23.50;57.40;;;;;;7372344;19;20409;-53
2022/11/13 13:52:30;;;;;;;5.38;4.00;;;23.70;57.00;;;;;;7371969;19;20073;-52
2022/11/13 13:55:26;;;;;;;5.15;3.78;;;23.80;56.30;;;;;;7372957;19;20889;-51
2022/11/13 13:58:16;;;;;;;4.72;3.63;;;23.80;55.40;;;;;;7371777;19;20388;-51
2022/11/13 14:01:04;;;;;;;5.25;4.10;;;23.20;55.20;;;;;;7373267;19;20098;-50
2022/11/13 14:04:01;;;;;;;5.15;3.95;;;23.50;55.00;;;;;;7371648;19;20095;-51
2022/11/13 14:06:54;;;;;;;5.20;3.75;;;23.10;56.40;;;;;;7372601;19;20018;-52
2022/11/13 14:09:39;;;;;;;5.70;3.97;;;23.20;56.60;;;;;;7371229;19;20481;-53
2022/11/13 14:12:24;;;;;;;5.00;4.07;;;23.60;56.70;;;;;;7369158;19;20045;-53
2022/11/13 14:15:24;;;;;;;5.25;4.43;;;23.60;57.10;;;;;;7371239;19;20596;-52
2022/11/13 14:18:15;;;;;;;6.93;5.53;;;23.40;57.80;;;;;;7373347;19;20616;-51
2022/11/13 14:21:08;;;;;;;5.93;4.07;;;23.20;58.20;;;;;;7373749;19;20026;-53
2022/11/13 14:23:54;;;;;;;7.05;5.35;;;23.20;58.80;;;;;;7376162;19;20037;-42
2022/11/13 14:26:38;;;;;;;4.32;3.70;;;22.70;60.30;;;;;;7371874;19;20583;-42
2022/11/13 14:29:45;;;;;;;6.00;5.13;;;22.70;61.30;;;;;;7370152;19;20482;-42
2022/11/13 14:32:37;;;;;;;6.50;4.82;;;22.70;60.80;;;;;;7370415;19;20029;-41
2022/11/13 14:35:25;;;;;;;7.22;5.10;;;22.60;61.20;;;;;;7373208;19;20546;-42
2022/11/13 14:38:25;;;;;;;7.75;6.43;;;22.60;61.90;;;;;;7369914;19;20011;-41
2022/11/13 14:41:36;;;;;;;6.85;5.53;;;22.50;61.10;;;;;;7367848;19;20423;-41